sensor_id;sensor_type;location;lat;lon;timestamp;pressure;altitude;pressure_sealevel;temperature;humidity
32330;BME280;18807;52.434;13.238;2023-08-17T00:06:43;75365.56;;;-142.05;76.22
32330;BME280;18807;52.434;13.238;2023-08-17T00:14:18;75363.53;;;-142.05;76.31
32330;BME280;18807;52.434;13.238;2023-08-17T00:21:54;75367.63;;;-142.05;76.74
32330;BME280;18807;52.434;13.238;2023-08-17T00:29:29;75375.78;;;-142.05;77.23
32330;BME280;18807;52.434;13.238;2023-08-17T00:37:05;75375.78;;;-142.05;77.67
32330;BME280;18807;52.434;13.238;2023-08-17T00:44:39;75379.88;;;-142.05;78.10
32330;BME280;18807;52.434;13.238;2023-08-17T00:52:15;75396.19;;;-142.05;78.44
32330;BME280;18807;52.434;13.238;2023-08-17T00:59:50;75404.34;;;-142.05;78.94
32330;BME280;18807;52.434;13.238;2023-08-17T01:07:40;75408.44;;;-142.05;79.01
32330;BME280;18807;52.434;13.238;2023-08-17T01:15:16;75410.47;;;-142.05;78.93
32330;BME280;18807;52.434;13.238;2023-08-17T01:22:55;75410.47;;;-142.05;79.49
32330;BME280;18807;52.434;13.238;2023-08-17T01:30:37;75439.03;;;-142.05;80.80
32330;BME280;18807;52.434;13.238;2023-08-17T01:38:18;75430.88;;;-142.05;81.42
32330;BME280;18807;52.434;13.238;2023-08-17T01:45:58;75465.56;;;-142.05;84.83
32330;BME280;18807;52.434;13.238;2023-08-17T01:53:34;75473.72;;;-142.05;86.19
32330;BME280;18807;52.434;13.238;2023-08-17T02:01:13;75479.84;;;-142.05;86.23
32330;BME280;18807;52.434;13.238;2023-08-17T02:08:47;75500.25;;;-142.05;86.87
32330;BME280;18807;52.434;13.238;2023-08-17T02:16:23;75510.47;;;-142.05;87.82
32330;BME280;18807;52.434;13.238;2023-08-17T02:23:58;75510.47;;;-142.05;87.85
32330;BME280;18807;52.434;13.238;2023-08-17T02:31:33;75516.56;;;-142.05;89.09
32330;BME280;18807;52.434;13.238;2023-08-17T02:39:09;75518.63;;;-142.05;88.79
32330;BME280;18807;52.434;13.238;2023-08-17T02:46:45;75528.81;;;-142.05;88.95
32330;BME280;18807;52.434;13.238;2023-08-17T02:54:19;75536.97;;;-142.05;89.42
32330;BME280;18807;52.434;13.238;2023-08-17T03:01:55;75545.16;;;-142.05;89.37
32330;BME280;18807;52.434;13.238;2023-08-17T03:09:30;75532.91;;;-142.05;90.08
32330;BME280;18807;52.434;13.238;2023-08-17T03:17:06;75524.75;;;-142.05;88.05
32330;BME280;18807;52.434;13.238;2023-08-17T03:24:40;75526.78;;;-142.05;88.09
32330;BME280;18807;52.434;13.238;2023-08-17T03:32:16;75530.88;;;-142.05;87.67
32330;BME280;18807;52.434;13.238;2023-08-17T03:39:52;75530.88;;;-142.05;86.25
32330;BME280;18807;52.434;13.238;2023-08-17T03:47:28;75539.03;;;-142.05;85.86
32330;BME280;18807;52.434;13.238;2023-08-17T03:55:02;75541.06;;;-142.05;85.02
32330;BME280;18807;52.434;13.238;2023-08-17T04:02:40;75543.09;;;-142.05;84.85
32330;BME280;18807;52.434;13.238;2023-08-17T04:10:15;75534.94;;;-142.05;84.60
32330;BME280;18807;52.434;13.238;2023-08-17T04:17:52;75526.78;;;-142.05;82.97
32330;BME280;18807;52.434;13.238;2023-08-17T04:25:27;75524.75;;;-142.05;81.98
32330;BME280;18807;52.434;13.238;2023-08-17T04:33:03;75520.66;;;-142.05;81.35
32330;BME280;18807;52.434;13.238;2023-08-17T04:40:38;75516.56;;;-142.05;79.69
32330;BME280;18807;52.434;13.238;2023-08-17T04:48:14;75516.56;;;-142.05;78.05
32330;BME280;18807;52.434;13.238;2023-08-17T04:55:50;75522.69;;;-142.05;77.61
32330;BME280;18807;52.434;13.238;2023-08-17T05:03:30;75522.69;;;-142.05;77.16
32330;BME280;18807;52.434;13.238;2023-08-17T05:11:06;75526.78;;;-142.05;76.64
32330;BME280;18807;52.434;13.238;2023-08-17T05:18:43;75532.91;;;-142.05;76.97
32330;BME280;18807;52.434;13.238;2023-08-17T05:26:17;75541.06;;;-142.05;76.42
32330;BME280;18807;52.434;13.238;2023-08-17T05:33:53;75536.97;;;-142.05;75.70
32330;BME280;18807;52.434;13.238;2023-08-17T05:41:28;75553.31;;;-142.05;75.35
32330;BME280;18807;52.434;13.238;2023-08-17T05:49:04;75588.00;;;-142.05;76.93
32330;BME280;18807;52.434;13.238;2023-08-17T05:56:38;75588.00;;;-142.05;78.67
32330;BME280;18807;52.434;13.238;2023-08-17T06:04:19;75600.25;;;-142.05;80.11
32330;BME280;18807;52.434;13.238;2023-08-17T06:11:53;75583.91;;;-142.05;82.01
32330;BME280;18807;52.434;13.238;2023-08-17T06:19:29;75571.69;;;-142.05;82.78
32330;BME280;18807;52.434;13.238;2023-08-17T06:27:04;75559.44;;;-142.05;84.51
32330;BME280;18807;52.434;13.238;2023-08-17T06:34:40;75539.03;;;-142.05;88.92
32330;BME280;18807;52.434;13.238;2023-08-17T06:42:14;75536.97;;;-142.05;94.80
32330;BME280;18807;52.434;13.238;2023-08-17T06:49:50;75532.91;;;-142.05;100.00
32330;BME280;18807;52.434;13.238;2023-08-17T06:57:41;75528.81;;;-142.05;100.00
32330;BME280;18807;52.434;13.238;2023-08-17T07:05:17;75553.31;;;-142.05;100.00
32330;BME280;18807;52.434;13.238;2023-08-17T07:12:52;75549.22;;;-142.05;100.00
32330;BME280;18807;52.434;13.238;2023-08-17T07:20:28;75561.47;;;-142.05;100.00
32330;BME280;18807;52.434;13.238;2023-08-17T07:28:03;75563.50;;;-142.05;100.00
32330;BME280;18807;52.434;13.238;2023-08-17T07:35:39;75551.28;;;-142.05;100.00
32330;BME280;18807;52.434;13.238;2023-08-17T07:43:15;75536.97;;;-142.05;100.00
32330;BME280;18807;52.434;13.238;2023-08-17T07:50:51;75514.53;;;-142.05;100.00
32330;BME280;18807;52.434;13.238;2023-08-17T07:58:26;75488.00;;;-142.05;100.00
32330;BME280;18807;52.434;13.238;2023-08-17T08:06:02;75445.16;;;-142.05;100.00
32330;BME280;18807;52.434;13.238;2023-08-17T08:13:36;75424.75;;;-142.05;100.00
32330;BME280;18807;52.434;13.238;2023-08-17T08:21:12;75388.03;;;-142.05;100.00
32330;BME280;18807;52.434;13.238;2023-08-17T08:28:46;75381.91;;;-142.05;93.70
32330;BME280;18807;52.434;13.238;2023-08-17T08:36:22;75367.63;;;-142.05;93.82
32330;BME280;18807;52.434;13.238;2023-08-17T08:43:56;75359.47;;;-142.05;91.44
32330;BME280;18807;52.434;13.238;2023-08-17T08:51:35;75343.13;;;-142.05;89.31
32330;BME280;18807;52.434;13.238;2023-08-17T08:59:12;75322.72;;;-142.05;88.02
32330;BME280;18807;52.434;13.238;2023-08-17T09:06:48;75298.25;;;-142.05;81.76
32330;BME280;18807;52.434;13.238;2023-08-17T09:14:24;75263.56;;;-142.05;80.06
32330;BME280;18807;52.434;13.238;2023-08-17T09:22:00;75214.59;;;-142.05;78.85
32330;BME280;18807;52.434;13.238;2023-08-17T09:29:35;75200.31;;;-142.05;78.46
32330;BME280;18807;52.434;13.238;2023-08-17T09:37:13;75183.97;;;-142.05;79.97
32330;BME280;18807;52.434;13.238;2023-08-17T09:44:48;75175.81;;;-142.05;78.59
32330;BME280;18807;52.434;13.238;2023-08-17T09:52:24;75171.72;;;-142.05;81.58
32330;BME280;18807;52.434;13.238;2023-08-17T10:00:00;75173.78;;;-142.05;77.54
32330;BME280;18807;52.434;13.238;2023-08-17T10:07:38;75147.25;;;-142.05;78.99
32330;BME280;18807;52.434;13.238;2023-08-17T10:15:18;75124.81;;;-142.05;74.90
32330;BME280;18807;52.434;13.238;2023-08-17T10:23:00;75059.50;;;-142.05;75.21
32330;BME280;18807;52.434;13.238;2023-08-17T10:30:36;75018.72;;;-142.05;71.38
32330;BME280;18807;52.434;13.238;2023-08-17T10:38:12;74973.81;;;-142.05;67.80
32330;BME280;18807;52.434;13.238;2023-08-17T10:45:49;74943.22;;;-142.05;67.38
32330;BME280;18807;52.434;13.238;2023-08-17T10:53:27;74918.72;;;-142.05;66.69
32330;BME280;18807;52.434;13.238;2023-08-17T11:01:06;74935.06;;;-142.05;66.69
32330;BME280;18807;52.434;13.238;2023-08-17T11:08:51;74916.69;;;-142.05;67.23
32330;BME280;18807;52.434;13.238;2023-08-17T11:16:26;74912.63;;;-142.05;70.44
32330;BME280;18807;52.434;13.238;2023-08-17T11:24:02;74908.53;;;-142.05;67.29
32330;BME280;18807;52.434;13.238;2023-08-17T11:31:42;74906.50;;;-142.05;69.08
32330;BME280;18807;52.434;13.238;2023-08-17T11:39:23;74879.97;;;-142.05;68.62
32330;BME280;18807;52.434;13.238;2023-08-17T11:46:59;74861.59;;;-142.05;69.98
32330;BME280;18807;52.434;13.238;2023-08-17T11:54:40;74845.28;;;-142.05;68.42
32330;BME280;18807;52.434;13.238;2023-08-17T12:02:14;74843.25;;;-142.05;69.41
32330;BME280;18807;52.434;13.238;2023-08-17T12:09:51;74816.72;;;-142.05;68.50
32330;BME280;18807;52.434;13.238;2023-08-17T12:17:25;74794.28;;;-142.05;67.74
32330;BME280;18807;52.434;13.238;2023-08-17T12:25:02;74798.38;;;-142.05;67.41
32330;BME280;18807;52.434;13.238;2023-08-17T12:32:37;74759.59;;;-142.05;65.91
32330;BME280;18807;52.434;13.238;2023-08-17T12:40:14;74745.31;;;-142.05;65.48
32330;BME280;18807;52.434;13.238;2023-08-17T12:47:49;74745.31;;;-142.05;65.91
32330;BME280;18807;52.434;13.238;2023-08-17T12:55:25;74712.69;;;-142.05;66.34
32330;BME280;18807;52.434;13.238;2023-08-17T13:03:00;74710.63;;;-142.05;66.08
32330;BME280;18807;52.434;13.238;2023-08-17T13:10:36;74710.63;;;-142.05;66.82
32330;BME280;18807;52.434;13.238;2023-08-17T13:18:10;74694.31;;;-142.05;66.94
32330;BME280;18807;52.434;13.238;2023-08-17T13:25:47;74688.19;;;-142.05;66.66
32330;BME280;18807;52.434;13.238;2023-08-17T13:33:21;74684.13;;;-142.05;64.48
32330;BME280;18807;52.434;13.238;2023-08-17T13:40:58;74653.50;;;-142.05;65.30
32330;BME280;18807;52.434;13.238;2023-08-17T13:48:32;74616.78;;;-142.05;66.38
32330;BME280;18807;52.434;13.238;2023-08-17T13:56:10;74598.44;;;-142.05;64.33
32330;BME280;18807;52.434;13.238;2023-08-17T14:03:45;74559.66;;;-142.05;62.50
32330;BME280;18807;52.434;13.238;2023-08-17T14:11:21;74553.56;;;-142.05;63.27
32330;BME280;18807;52.434;13.238;2023-08-17T14:18:59;74512.75;;;-142.05;61.77
32330;BME280;18807;52.434;13.238;2023-08-17T14:26:52;74498.47;;;-142.05;62.24
32330;BME280;18807;52.434;13.238;2023-08-17T14:34:26;74471.94;;;-142.05;59.92
32330;BME280;18807;52.434;13.238;2023-08-17T14:42:02;74496.44;;;-142.05;61.26
32330;BME280;18807;52.434;13.238;2023-08-17T14:49:38;74469.91;;;-142.05;61.01
32330;BME280;18807;52.434;13.238;2023-08-17T14:57:14;74480.13;;;-142.05;59.84
32330;BME280;18807;52.434;13.238;2023-08-17T15:04:52;74425.03;;;-142.05;59.73
32330;BME280;18807;52.434;13.238;2023-08-17T15:12:28;74451.56;;;-142.05;59.95
32330;BME280;18807;52.434;13.238;2023-08-17T15:20:06;74388.31;;;-142.05;60.53
32330;BME280;18807;52.434;13.238;2023-08-17T15:27:42;74398.50;;;-142.05;59.26
32330;BME280;18807;52.434;13.238;2023-08-17T15:35:16;74416.88;;;-142.05;59.92
32330;BME280;18807;52.434;13.238;2023-08-17T15:42:52;74433.19;;;-142.05;60.41
32330;BME280;18807;52.434;13.238;2023-08-17T15:50:29;74476.03;;;-142.05;59.08
32330;BME280;18807;52.434;13.238;2023-08-17T15:58:06;74482.16;;;-142.05;61.24
32330;BME280;18807;52.434;13.238;2023-08-17T16:05:42;74488.28;;;-142.05;61.78
32330;BME280;18807;52.434;13.238;2023-08-17T16:13:20;74490.31;;;-142.05;61.86
32330;BME280;18807;52.434;13.238;2023-08-17T16:20:56;74502.56;;;-142.05;62.31
32330;BME280;18807;52.434;13.238;2023-08-17T16:28:31;74508.66;;;-142.05;62.19
32330;BME280;18807;52.434;13.238;2023-08-17T16:36:06;74518.88;;;-142.05;61.94
32330;BME280;18807;52.434;13.238;2023-08-17T16:43:42;74527.03;;;-142.05;61.64
32330;BME280;18807;52.434;13.238;2023-08-17T16:51:17;74543.34;;;-142.05;61.93
32330;BME280;18807;52.434;13.238;2023-08-17T16:58:55;74547.44;;;-142.05;62.25
32330;BME280;18807;52.434;13.238;2023-08-17T17:06:34;74551.50;;;-142.05;62.96
32330;BME280;18807;52.434;13.238;2023-08-17T17:14:10;74553.56;;;-142.05;63.08
32330;BME280;18807;52.434;13.238;2023-08-17T17:21:45;74567.84;;;-142.05;63.04
32330;BME280;18807;52.434;13.238;2023-08-17T17:29:21;74578.03;;;-142.05;63.74
32330;BME280;18807;52.434;13.238;2023-08-17T17:36:57;74592.31;;;-142.05;63.64
32330;BME280;18807;52.434;13.238;2023-08-17T17:44:38;74604.56;;;-142.05;64.52
32330;BME280;18807;52.434;13.238;2023-08-17T17:52:12;74612.72;;;-142.05;64.40
32330;BME280;18807;52.434;13.238;2023-08-17T17:59:49;74618.84;;;-142.05;65.14
32330;BME280;18807;52.434;13.238;2023-08-17T18:07:24;74624.94;;;-142.05;66.05
32330;BME280;18807;52.434;13.238;2023-08-17T18:15:01;74637.19;;;-142.05;66.18
32330;BME280;18807;52.434;13.238;2023-08-17T18:22:36;74647.41;;;-142.05;65.92
32330;BME280;18807;52.434;13.238;2023-08-17T18:30:13;74659.63;;;-142.05;65.85
32330;BME280;18807;52.434;13.238;2023-08-17T18:37:48;74680.03;;;-142.05;65.48
32330;BME280;18807;52.434;13.238;2023-08-17T18:45:24;74686.16;;;-142.05;65.01
32330;BME280;18807;52.434;13.238;2023-08-17T18:52:58;74694.31;;;-142.05;65.69
32330;BME280;18807;52.434;13.238;2023-08-17T19:00:37;74696.34;;;-142.05;65.73
32330;BME280;18807;52.434;13.238;2023-08-17T19:08:11;74706.56;;;-142.05;66.28
32330;BME280;18807;52.434;13.238;2023-08-17T19:15:47;74716.75;;;-142.05;66.98
32330;BME280;18807;52.434;13.238;2023-08-17T19:23:23;74751.44;;;-142.05;66.68
32330;BME280;18807;52.434;13.238;2023-08-17T19:30:59;74757.56;;;-142.05;66.52
32330;BME280;18807;52.434;13.238;2023-08-17T19:38:36;74788.16;;;-142.05;66.00
32330;BME280;18807;52.434;13.238;2023-08-17T19:46:11;74800.41;;;-142.05;66.25
32330;BME280;18807;52.434;13.238;2023-08-17T19:53:46;74824.88;;;-142.05;65.73
32330;BME280;18807;52.434;13.238;2023-08-17T20:01:22;74831.00;;;-142.05;65.49
32330;BME280;18807;52.434;13.238;2023-08-17T20:08:56;74855.50;;;-142.05;66.16
32330;BME280;18807;52.434;13.238;2023-08-17T20:16:32;74861.59;;;-142.05;66.30
32330;BME280;18807;52.434;13.238;2023-08-17T20:24:07;74900.38;;;-142.05;73.39
32330;BME280;18807;52.434;13.238;2023-08-17T20:31:44;74933.03;;;-142.05;89.75
32330;BME280;18807;52.434;13.238;2023-08-17T20:39:18;74975.88;;;-142.05;100.00
32330;BME280;18807;52.434;13.238;2023-08-17T20:46:54;75030.94;;;-142.05;100.00
32330;BME280;18807;52.434;13.238;2023-08-17T20:54:29;75067.69;;;-142.05;100.00
32330;BME280;18807;52.434;13.238;2023-08-17T21:02:05;75059.50;;;-142.05;100.00
32330;BME280;18807;52.434;13.238;2023-08-17T21:09:40;75059.50;;;-142.05;100.00
32330;BME280;18807;52.434;13.238;2023-08-17T21:17:16;75118.69;;;-142.05;100.00
32330;BME280;18807;52.434;13.238;2023-08-17T21:24:52;75137.06;;;-142.05;100.00
32330;BME280;18807;52.434;13.238;2023-08-17T21:32:28;75163.56;;;-142.05;100.00
32330;BME280;18807;52.434;13.238;2023-08-17T21:40:05;75153.38;;;-142.05;100.00
32330;BME280;18807;52.434;13.238;2023-08-17T21:47:41;75139.09;;;-142.05;100.00
32330;BME280;18807;52.434;13.238;2023-08-17T21:55:15;75128.88;;;-142.05;100.00
32330;BME280;18807;52.434;13.238;2023-08-17T22:02:52;75114.59;;;-142.05;100.00
32330;BME280;18807;52.434;13.238;2023-08-17T22:10:27;75135.00;;;-142.05;100.00
32330;BME280;18807;52.434;13.238;2023-08-17T22:18:05;75153.38;;;-142.05;100.00
32330;BME280;18807;52.434;13.238;2023-08-17T22:25:40;75153.38;;;-142.05;100.00
32330;BME280;18807;52.434;13.238;2023-08-17T22:33:16;75157.44;;;-142.05;100.00
32330;BME280;18807;52.434;13.238;2023-08-17T22:40:51;75171.72;;;-142.05;100.00
32330;BME280;18807;52.434;13.238;2023-08-17T22:48:26;75173.78;;;-142.05;100.00
32330;BME280;18807;52.434;13.238;2023-08-17T22:56:01;75169.69;;;-142.05;100.00
32330;BME280;18807;52.434;13.238;2023-08-17T23:03:37;75165.63;;;-142.05;100.00
32330;BME280;18807;52.434;13.238;2023-08-17T23:11:11;75173.78;;;-142.05;100.00
32330;BME280;18807;52.434;13.238;2023-08-17T23:18:48;75173.78;;;-142.05;100.00
32330;BME280;18807;52.434;13.238;2023-08-17T23:26:22;75183.97;;;-142.05;100.00
32330;BME280;18807;52.434;13.238;2023-08-17T23:33:59;75188.06;;;-142.05;100.00
32330;BME280;18807;52.434;13.238;2023-08-17T23:41:33;75190.09;;;-142.05;100.00
32330;BME280;18807;52.434;13.238;2023-08-17T23:49:09;75200.31;;;-142.05;100.00
32330;BME280;18807;52.434;13.238;2023-08-17T23:56:45;75200.31;;;-142.05;100.00
